Time;durP1;ratioP1;P1;durP2;ratioP2;P2;SDS_P1;SDS_P2;PMS_P1;PMS_P2;Temp;Humidity;BMP_temperature;BMP_pressure;BME280_temperature;BME280_humidity;BME280_pressure;Samples;Min_cycle;Max_cycle;Signal;HPM_P1;HPM_P2
2022/04/30 00:01:08;;;;;;;;;;;;;;;;;;5044306;28;19916;-81
2022/04/30 00:03:54;;;;;;;;;;;;;;;;;;5048046;28;19971;-81
2022/04/30 00:06:41;;;;;;;;;;;;;;;;;;5057038;28;20368;-81
2022/04/30 00:09:28;;;;;;;;;;;;;;;;;;5054471;28;19917;-82
2022/04/30 00:12:16;;;;;;;;;;;;;;;;;;5054053;28;19909;-82
2022/04/30 00:15:02;;;;;;;;;;;;;;;;;;5039132;28;19912;-83
2022/04/30 00:17:51;;;;;;;;;;;;;;;;;;5038440;28;20274;-83
2022/04/30 00:20:37;;;;;;;;;;;;;;;;;;5043443;28;19939;-83
2022/04/30 00:23:24;;;;;;;;;;;;;;;;;;5035047;28;19920;-82
2022/04/30 00:26:10;;;;;;;;;;;;;;;;;;5052365;28;19913;-82
2022/04/30 00:28:56;;;;;;;;;;;;;;;;;;5074798;28;19917;-82
2022/04/30 00:31:43;;;;;;;;;;;;;;;;;;5055906;28;19924;-83
2022/04/30 00:34:29;;;;;;;;;;;;;;;;;;5069120;28;20281;-82
2022/04/30 00:37:16;;;;;;;;;;;;;;;;;;5051465;28;20357;-82
2022/04/30 00:40:02;;;;;;;;;;;;;;;;;;5040146;28;19957;-82
2022/04/30 00:42:49;;;;;;;;;;;;;;;;;;5053183;28;20383;-82
2022/04/30 00:45:35;;;;;;;;;;;;;;;;;;5040669;28;19909;-82
2022/04/30 00:48:22;;;;;;;;;;;;;;;;;;5051330;28;19932;-82
2022/04/30 00:51:09;;;;;;;;;;;;;;;;;;5065189;28;20291;-83
2022/04/30 00:53:55;;;;;;;;;;;;;;;;;;5056286;28;19917;-82
2022/04/30 00:56:43;;;;;;;;;;;;;;;;;;5059603;28;19909;-83
2022/04/30 00:59:31;;;;;;;;;;;;;;;;;;5065016;28;20276;-83
2022/04/30 01:02:18;;;;;;;;;;;;;;;;;;5039669;28;19908;-83
2022/04/30 01:05:04;;;;;;;;;;;;;;;;;;5050364;28;19927;-82
2022/04/30 01:07:52;;;;;;;;;;;;;;;;;;5047761;28;19925;-83
2022/04/30 01:10:39;;;;;;;;;;;;;;;;;;5051129;28;19913;-82
2022/04/30 01:13:25;;;;;;;;;;;;;;;;;;5052729;28;19909;-80
2022/04/30 01:16:12;;;;;;;;;;;;;;;;;;5046870;28;19915;-80
2022/04/30 01:18:58;;;;;;;;;;;;;;;;;;5061992;28;19916;-82
2022/04/30 01:21:45;;;;;;;;;;;;;;;;;;5060275;28;19913;-83
2022/04/30 01:24:31;;;;;;;;;;;;;;;;;;5046598;28;19916;-82
2022/04/30 01:27:18;;;;;;;;;;;;;;;;;;5053122;28;19949;-81
2022/04/30 01:30:04;;;;;;;;;;;;;;;;;;5045536;28;19917;-81
2022/04/30 01:39:02;;;;;;;;;;;;;;;;;;5045972;28;20380;-83
2022/04/30 01:41:49;;;;;;;;;;;;;;;;;;5044904;28;20293;-79
2022/04/30 01:44:35;;;;;;;;;;;;;;;;;;5041962;28;19917;-84
2022/04/30 01:47:22;;;;;;;;;;;;;;;;;;5051383;28;19927;-83
2022/04/30 01:50:09;;;;;;;;;;;;;;;;;;5038879;28;19917;-83
2022/04/30 01:52:55;;;;;;;;;;;;;;;;;;5038742;28;20470;-83
2022/04/30 01:55:42;;;;;;;;;;;;;;;;;;5050030;28;19909;-83
2022/04/30 01:58:30;;;;;;;;;;;;;;;;;;5039886;28;19913;-82
2022/04/30 02:01:16;;;;;;;;;;;;;;;;;;5043971;28;19917;-85
2022/04/30 02:04:03;;;;;;;;;;;;;;;;;;5037160;28;19917;-84
2022/04/30 02:06:49;;;;;;;;;;;;;;;;;;5046982;28;20016;-83
2022/04/30 02:09:35;;;;;;;;;;;;;;;;;;5059044;28;19917;-84
2022/04/30 02:12:22;;;;;;;;;;;;;;;;;;5033263;28;19913;-84
2022/04/30 02:15:08;;;;;;;;;;;;;;;;;;5045743;28;19913;-83
2022/04/30 02:17:55;;;;;;;;;;;;;;;;;;5051664;28;19920;-84
2022/04/30 02:20:42;;;;;;;;;;;;;;;;;;5050347;28;20357;-84
2022/04/30 02:23:30;;;;;;;;;;;;;;;;;;5049610;28;19908;-84
2022/04/30 02:26:16;;;;;;;;;;;;;;;;;;5047625;28;19912;-84
2022/04/30 02:29:03;;;;;;;;;;;;;;;;;;5054199;28;19927;-85
2022/04/30 02:31:49;;;;;;;;;;;;;;;;;;5046162;28;20404;-84
2022/04/30 02:34:36;;;;;;;;;;;;;;;;;;5050778;28;19913;-85
2022/04/30 02:37:22;;;;;;;;;;;;;;;;;;5047830;28;20672;-84
2022/04/30 02:40:09;;;;;;;;;;;;;;;;;;5051439;28;19938;-84
2022/04/30 02:42:57;;;;;;;;;;;;;;;;;;5051651;28;19924;-84
2022/04/30 02:45:44;;;;;;;;;;;;;;;;;;5050122;28;19920;-83
2022/04/30 02:48:31;;;;;;;;;;;;;;;;;;5056993;28;19925;-83
2022/04/30 02:51:26;;;;;;;;;;;;;;;;;;5042393;28;19917;-85
2022/04/30 02:54:13;;;;;;;;;;;;;;;;;;5052503;28;19927;-83
2022/04/30 02:57:00;;;;;;;;;;;;;;;;;;5045360;28;19909;-83
2022/04/30 02:59:55;;;;;;;;;;;;;;;;;;5055127;28;20004;-83
2022/04/30 03:02:42;;;;;;;;;;;;;;;;;;5040706;28;19917;-83
2022/04/30 03:05:30;;;;;;;;;;;;;;;;;;5062910;28;20361;-84
2022/04/30 03:08:19;;;;;;;;;;;;;;;;;;5043183;28;19928;-83
2022/04/30 03:11:07;;;;;;;;;;;;;;;;;;5048694;28;19947;-83
2022/04/30 03:13:53;;;;;;;;;;;;;;;;;;5053245;28;19909;-84
2022/04/30 03:22:50;;;;;;;;;;;;;;;;;;5049740;28;19909;-83
2022/04/30 03:25:37;;;;;;;;;;;;;;;;;;5052397;28;19915;-84
2022/04/30 03:28:23;;;;;;;;;;;;;;;;;;5045451;28;20377;-84
2022/04/30 03:31:10;;;;;;;;;;;;;;;;;;5035404;28;19909;-84
2022/04/30 03:33:56;;;;;;;;;;;;;;;;;;5043997;28;19920;-83
2022/04/30 03:36:43;;;;;;;;;;;;;;;;;;5051536;28;19915;-84
2022/04/30 03:39:29;;;;;;;;;;;;;;;;;;5061012;28;19909;-84
2022/04/30 03:42:16;;;;;;;;;;;;;;;;;;5056807;28;19912;-84
2022/04/30 03:45:02;;;;;;;;;;;;;;;;;;5058660;28;19913;-85
2022/04/30 03:47:49;;;;;;;;;;;;;;;;;;5051936;28;19912;-84
2022/04/30 03:50:35;;;;;;;;;;;;;;;;;;5048401;28;20415;-83
2022/04/30 03:53:22;;;;;;;;;;;;;;;;;;5047012;28;19920;-85
2022/04/30 03:56:08;;;;;;;;;;;;;;;;;;5046551;28;19920;-84
2022/04/30 03:58:56;;;;;;;;;;;;;;;;;;5046518;28;19909;-84
2022/04/30 04:01:42;;;;;;;;;;;;;;;;;;5037375;28;19917;-83
2022/04/30 04:04:29;;;;;;;;;;;;;;;;;;5064323;28;20288;-84
2022/04/30 04:07:16;;;;;;;;;;;;;;;;;;5026382;28;19927;-84
2022/04/30 04:10:02;;;;;;;;;;;;;;;;;;5061407;28;19924;-84
2022/04/30 04:12:49;;;;;;;;;;;;;;;;;;5044164;28;19909;-85
2022/04/30 04:18:40;;;;;;;;;;;;;;;;;;5056363;28;19909;-85
2022/04/30 04:21:27;;;;;;;;;;;;;;;;;;5050141;28;19932;-85
2022/04/30 04:27:18;;;;;;;;;;;;;;;;;;5052749;28;19916;-85
2022/04/30 04:30:05;;;;;;;;;;;;;;;;;;5039146;28;20254;-86
2022/04/30 04:32:54;;;;;;;;;;;;;;;;;;5033110;28;19929;-82
2022/04/30 04:35:41;;;;;;;;;;;;;;;;;;5035569;28;19939;-81
2022/04/30 04:38:27;;;;;;;;;;;;;;;;;;5048708;28;20282;-81
2022/04/30 04:41:14;;;;;;;;;;;;;;;;;;5037958;28;19913;-83
2022/04/30 04:44:02;;;;;;;;;;;;;;;;;;5040796;28;19927;-83
2022/04/30 04:46:49;;;;;;;;;;;;;;;;;;5030735;28;19913;-81
2022/04/30 04:49:35;;;;;;;;;;;;;;;;;;5039377;28;20488;-83
2022/04/30 04:52:22;;;;;;;;;;;;;;;;;;5035046;28;19921;-81
2022/04/30 04:55:09;;;;;;;;;;;;;;;;;;5044400;28;20482;-81
2022/04/30 04:57:55;;;;;;;;;;;;;;;;;;5042427;28;19919;-84
2022/04/30 05:00:42;;;;;;;;;;;;;;;;;;5048559;28;19921;-81
2022/04/30 05:03:29;;;;;;;;;;;;;;;;;;5039086;28;20373;-82
2022/04/30 05:06:15;;;;;;;;;;;;;;;;;;5033597;28;19924;-83
2022/04/30 05:09:02;;;;;;;;;;;;;;;;;;5045143;28;19932;-83
2022/04/30 05:11:48;;;;;;;;;;;;;;;;;;5046380;28;19943;-84
2022/04/30 05:14:35;;;;;;;;;;;;;;;;;;5041041;28;20365;-84
2022/04/30 05:17:21;;;;;;;;;;;;;;;;;;5052991;28;19921;-84
2022/04/30 05:20:08;;;;;;;;;;;;;;;;;;5035864;28;20094;-84
2022/04/30 05:22:54;;;;;;;;;;;;;;;;;;5037555;28;19909;-83
2022/04/30 05:25:40;;;;;;;;;;;;;;;;;;5042447;28;19909;-82
2022/04/30 05:28:27;;;;;;;;;;;;;;;;;;5047019;28;19921;-83
2022/04/30 05:31:13;;;;;;;;;;;;;;;;;;5035696;28;20395;-84
2022/04/30 05:34:02;;;;;;;;;;;;;;;;;;5054743;28;22056;-82
2022/04/30 05:36:48;;;;;;;;;;;;;;;;;;5047286;28;19909;-83
2022/04/30 05:39:35;;;;;;;;;;;;;;;;;;5051962;28;19909;-83
2022/04/30 05:42:21;;;;;;;;;;;;;;;;;;5073215;28;19920;-84
2022/04/30 05:45:08;;;;;;;;;;;;;;;;;;5042883;28;20431;-83
2022/04/30 05:47:54;;;;;;;;;;;;;;;;;;5054574;28;19949;-83
2022/04/30 05:50:41;;;;;;;;;;;;;;;;;;5060657;28;19919;-83
2022/04/30 05:53:27;;;;;;;;;;;;;;;;;;5027345;28;19924;-82
2022/04/30 05:56:14;;;;;;;;;;;;;;;;;;5044496;28;19920;-82
2022/04/30 05:59:00;;;;;;;;;;;;;;;;;;5054420;28;19917;-82
2022/04/30 06:01:47;;;;;;;;;;;;;;;;;;5040633;28;19913;-80
2022/04/30 06:04:33;;;;;;;;;;;;;;;;;;5035826;28;19947;-83
2022/04/30 06:07:20;;;;;;;;;;;;;;;;;;5039888;28;19912;-83
2022/04/30 06:10:06;;;;;;;;;;;;;;;;;;5045588;28;20771;-82
2022/04/30 06:12:53;;;;;;;;;;;;;;;;;;5050682;28;19909;-82
2022/04/30 06:15:39;;;;;;;;;;;;;;;;;;5033006;28;20300;-82
2022/04/30 06:18:26;;;;;;;;;;;;;;;;;;5059711;28;20300;-82
2022/04/30 06:21:13;;;;;;;;;;;;;;;;;;5055031;28;19912;-81
2022/04/30 06:23:59;;;;;;;;;;;;;;;;;;5037474;28;19915;-82
2022/04/30 06:26:46;;;;;;;;;;;;;;;;;;5052000;28;19916;-84
2022/04/30 06:29:32;;;;;;;;;;;;;;;;;;5054326;28;19928;-84
2022/04/30 06:32:19;;;;;;;;;;;;;;;;;;5052628;28;19921;-82
2022/04/30 06:35:05;;;;;;;;;;;;;;;;;;5041305;28;19918;-81
2022/04/30 06:37:52;;;;;;;;;;;;;;;;;;5037258;28;19917;-81
2022/04/30 06:40:38;;;;;;;;;;;;;;;;;;5044663;28;19909;-82
2022/04/30 06:43:25;;;;;;;;;;;;;;;;;;5045745;28;19919;-81
2022/04/30 06:46:11;;;;;;;;;;;;;;;;;;5048035;28;19917;-81
2022/04/30 06:48:58;;;;;;;;;;;;;;;;;;5063621;28;19927;-82
2022/04/30 06:51:47;;;;;;;;;;;;;;;;;;5044791;28;19927;-81
2022/04/30 06:57:38;;;;;;;;;;;;;;;;;;5040637;28;20289;-78
2022/04/30 07:03:30;;;;;;;;;;;;;;;;;;5035561;28;19909;-78
2022/04/30 07:06:19;;;;;;;;;;;;;;;;;;5050225;28;19913;-79
2022/04/30 07:09:06;;;;;;;;;;;;;;;;;;5051654;28;19939;-83
2022/04/30 07:11:54;;;;;;;;;;;;;;;;;;5042804;28;20373;-83
2022/04/30 07:14:45;;;;;;;;;;;;;;;;;;5044506;28;19912;-81
2022/04/30 07:17:31;;;;;;;;;;;;;;;;;;5038695;28;20056;-82
2022/04/30 07:20:20;;;;;;;;;;;;;;;;;;5063224;28;19916;-82
2022/04/30 07:23:07;;;;;;;;;;;;;;;;;;5039733;28;19917;-80
2022/04/30 07:25:53;;;;;;;;;;;;;;;;;;5043863;28;20296;-79
2022/04/30 07:28:40;;;;;;;;;;;;;;;;;;5043648;28;19992;-78
2022/04/30 07:31:26;;;;;;;;;;;;;;;;;;5049229;28;19912;-76
2022/04/30 07:34:13;;;;;;;;;;;;;;;;;;5052995;28;20281;-77
2022/04/30 07:36:59;;;;;;;;;;;;;;;;;;5035300;28;19920;-76
2022/04/30 07:39:46;;;;;;;;;;;;;;;;;;5040040;28;19920;-76
2022/04/30 07:42:35;;;;;;;;;;;;;;;;;;5035717;28;19924;-75
2022/04/30 07:45:22;;;;;;;;;;;;;;;;;;5039693;28;19916;-75
2022/04/30 07:48:08;;;;;;;;;;;;;;;;;;5042545;28;19917;-75
2022/04/30 07:50:57;;;;;;;;;;;;;;;;;;5036981;28;19909;-76
2022/04/30 07:53:44;;;;;;;;;;;;;;;;;;5039638;28;19909;-76
2022/04/30 07:56:30;;;;;;;;;;;;;;;;;;5048830;28;19916;-77
2022/04/30 07:59:17;;;;;;;;;;;;;;;;;;5037694;28;20468;-74
2022/04/30 08:02:04;;;;;;;;;;;;;;;;;;5038089;28;19931;-75
2022/04/30 08:04:50;;;;;;;;;;;;;;;;;;5036186;28;19913;-75
2022/04/30 08:07:37;;;;;;;;;;;;;;;;;;5038108;28;19916;-74
2022/04/30 08:10:23;;;;;;;;;;;;;;;;;;5048137;28;20336;-74
2022/04/30 08:13:10;;;;;;;;;;;;;;;;;;5040036;28;19919;-74
2022/04/30 08:15:56;;;;;;;;;;;;;;;;;;5038000;28;20352;-75
2022/04/30 08:18:43;;;;;;;;;;;;;;;;;;5036805;28;19909;-75
2022/04/30 08:21:29;;;;;;;;;;;;;;;;;;5040072;28;19913;-74
2022/04/30 08:24:16;;;;;;;;;;;;;;;;;;5041164;28;19912;-75
2022/04/30 08:27:02;;;;;;;;;;;;;;;;;;5043577;28;19935;-75
2022/04/30 08:29:49;;;;;;;;;;;;;;;;;;5039664;28;19928;-75
2022/04/30 08:32:35;;;;;;;;;;;;;;;;;;5040275;28;19925;-76
2022/04/30 08:35:22;;;;;;;;;;;;;;;;;;5026714;28;19912;-76
2022/04/30 08:38:08;;;;;;;;;;;;;;;;;;5034380;28;19931;-74
2022/04/30 08:40:55;;;;;;;;;;;;;;;;;;5037721;28;19913;-75
2022/04/30 08:43:41;;;;;;;;;;;;;;;;;;5041508;28;19913;-74
2022/04/30 08:46:28;;;;;;;;;;;;;;;;;;5036141;28;20430;-75
2022/04/30 08:49:14;;;;;;;;;;;;;;;;;;5038645;28;19944;-74
2022/04/30 08:52:01;;;;;;;;;;;;;;;;;;5054792;28;19912;-77
2022/04/30 08:54:47;;;;;;;;;;;;;;;;;;5048145;28;19941;-77
2022/04/30 08:57:34;;;;;;;;;;;;;;;;;;5031729;28;20296;-76
2022/04/30 09:00:20;;;;;;;;;;;;;;;;;;5042824;28;19915;-76
2022/04/30 09:03:07;;;;;;;;;;;;;;;;;;5036654;28;19927;-75
2022/04/30 09:05:53;;;;;;;;;;;;;;;;;;5039890;28;19912;-74
2022/04/30 09:08:48;;;;;;;;;;;;;;;;;;5060357;28;19923;-79
2022/04/30 09:11:37;;;;;;;;;;;;;;;;;;5047927;28;19935;-77
2022/04/30 09:14:36;;;;;;;;;;;;;;;;;;5057870;28;19909;-76
2022/04/30 09:20:53;;;;;;;;;;;;;;;;;;4982540;28;19917;-76
2022/04/30 09:23:50;;;;;;;;;;;;;;;;;;;;;
2022/04/30 09:26:43;;;;;;;;;;;;;;;;;;5054155;28;19913;-76
2022/04/30 09:29:30;;;;;;;;;;;;;;;;;;5062053;28;19924;-77
2022/04/30 09:32:19;;;;;;;;;;;;;;;;;;5052404;28;19932;-76
2022/04/30 09:38:20;;;;;;;;;;;;;;;;;;5053643;28;19920;-76
2022/04/30 09:44:22;;;;;;;;;;;;;;;;;;5046744;28;19913;-77
2022/04/30 09:47:25;;;;;;;;;;;;;;;;;;5062837;28;20283;-76
2022/04/30 09:56:27;;;;;;;;;;;;;;;;;;5054022;28;19923;-76
2022/04/30 09:59:14;;;;;;;;;;;;;;;;;;5028515;28;19908;-75
2022/04/30 10:02:00;;;;;;;;;;;;;;;;;;5041973;28;19915;-76
2022/04/30 10:04:47;;;;;;;;;;;;;;;;;;5050796;28;19962;-76
2022/04/30 10:07:33;;;;;;;;;;;;;;;;;;5035986;28;19909;-77
2022/04/30 10:10:20;;;;;;;;;;;;;;;;;;5035366;28;19916;-76
2022/04/30 10:13:07;;;;;;;;;;;;;;;;;;5050111;28;19917;-76
2022/04/30 10:15:54;;;;;;;;;;;;;;;;;;5051698;28;19920;-76
2022/04/30 10:18:43;;;;;;;;;;;;;;;;;;5051119;28;19913;-76
2022/04/30 10:21:30;;;;;;;;;;;;;;;;;;5038013;28;19916;-75
2022/04/30 10:24:17;;;;;;;;;;;;;;;;;;5050771;28;19912;-75
2022/04/30 10:27:03;;;;;;;;;;;;;;;;;;5044946;28;19921;-75
2022/04/30 10:29:50;;;;;;;;;;;;;;;;;;5044526;28;20262;-75
2022/04/30 10:32:39;;;;;;;;;;;;;;;;;;5039837;28;19925;-76
2022/04/30 10:35:26;;;;;;;;;;;;;;;;;;5042229;28;19909;-75
2022/04/30 10:38:12;;;;;;;;;;;;;;;;;;5037524;28;19925;-75
2022/04/30 10:40:59;;;;;;;;;;;;;;;;;;5048957;28;19920;-76
2022/04/30 10:43:45;;;;;;;;;;;;;;;;;;5038852;28;19915;-75
2022/04/30 10:46:32;;;;;;;;;;;;;;;;;;5053194;28;19913;-75
2022/04/30 10:49:18;;;;;;;;;;;;;;;;;;5045357;28;19921;-74
2022/04/30 10:52:05;;;;;;;;;;;;;;;;;;5039647;28;19908;-74
2022/04/30 10:54:51;;;;;;;;;;;;;;;;;;5050740;28;19920;-74
2022/04/30 10:57:38;;;;;;;;;;;;;;;;;;5050297;28;19912;-74
2022/04/30 11:00:24;;;;;;;;;;;;;;;;;;5056454;28;19915;-75
2022/04/30 11:03:11;;;;;;;;;;;;;;;;;;5038694;28;19909;-75
2022/04/30 11:05:57;;;;;;;;;;;;;;;;;;5036541;28;19909;-75
2022/04/30 11:08:44;;;;;;;;;;;;;;;;;;5048178;28;20273;-75
2022/04/30 11:11:30;;;;;;;;;;;;;;;;;;5049970;28;19917;-75
2022/04/30 11:14:16;;;;;;;;;;;;;;;;;;5061968;28;19923;-74
2022/04/30 11:17:03;;;;;;;;;;;;;;;;;;5045251;28;19921;-74
2022/04/30 11:19:49;;;;;;;;;;;;;;;;;;5049148;28;19915;-76
2022/04/30 11:22:36;;;;;;;;;;;;;;;;;;5030738;28;19965;-75
2022/04/30 11:25:22;;;;;;;;;;;;;;;;;;5036649;28;19941;-74
2022/04/30 11:28:09;;;;;;;;;;;;;;;;;;5040611;28;19920;-74
2022/04/30 11:30:55;;;;;;;;;;;;;;;;;;5034879;28;19917;-75
2022/04/30 11:33:42;;;;;;;;;;;;;;;;;;5042896;28;19932;-73
2022/04/30 11:36:28;;;;;;;;;;;;;;;;;;5048772;28;19909;-76
2022/04/30 11:39:15;;;;;;;;;;;;;;;;;;5049269;28;19920;-76
2022/04/30 11:42:01;;;;;;;;;;;;;;;;;;5040121;28;19920;-73
2022/04/30 11:44:48;;;;;;;;;;;;;;;;;;5045806;28;20383;-76
2022/04/30 11:47:34;;;;;;;;;;;;;;;;;;5051696;28;19916;-74
2022/04/30 11:50:21;;;;;;;;;;;;;;;;;;5037205;28;19923;-76
2022/04/30 11:53:07;;;;;;;;;;;;;;;;;;5029636;28;20253;-76
2022/04/30 11:55:53;;;;;;;;;;;;;;;;;;5046391;28;19917;-74
2022/04/30 11:58:40;;;;;;;;;;;;;;;;;;5036509;28;19924;-76
2022/04/30 12:01:27;;;;;;;;;;;;;;;;;;5034105;28;19913;-76
2022/04/30 12:04:18;;;;;;;;;;;;;;;;;;5048829;28;19913;-76
2022/04/30 12:07:05;;;;;;;;;;;;;;;;;;5037115;28;19909;-76
2022/04/30 12:09:51;;;;;;;;;;;;;;;;;;5043837;28;19920;-76
2022/04/30 12:12:38;;;;;;;;;;;;;;;;;;5037566;28;20625;-76
2022/04/30 12:15:25;;;;;;;;;;;;;;;;;;5036596;28;19919;-76
2022/04/30 12:24:41;;;;;;;;;;;;;;;;;;5038656;28;20268;-75
2022/04/30 12:27:28;;;;;;;;;;;;;;;;;;5051171;28;19924;-75
2022/04/30 12:30:14;;;;;;;;;;;;;;;;;;5046746;28;19920;-75
2022/04/30 12:33:01;;;;;;;;;;;;;;;;;;5039639;28;19925;-75
2022/04/30 12:35:48;;;;;;;;;;;;;;;;;;5044671;28;20623;-75
2022/04/30 12:38:34;;;;;;;;;;;;;;;;;;5042585;28;19909;-76
2022/04/30 12:41:22;;;;;;;;;;;;;;;;;;5050456;28;20377;-75
2022/04/30 12:44:09;;;;;;;;;;;;;;;;;;5037542;28;19919;-75
2022/04/30 12:46:55;;;;;;;;;;;;;;;;;;5036345;28;19920;-75
2022/04/30 12:49:42;;;;;;;;;;;;;;;;;;5046932;28;20026;-76
2022/04/30 12:52:28;;;;;;;;;;;;;;;;;;5039489;28;19909;-75
2022/04/30 12:55:18;;;;;;;;;;;;;;;;;;5052062;28;19912;-75
2022/04/30 12:58:04;;;;;;;;;;;;;;;;;;5049565;28;19917;-75
2022/04/30 13:00:53;;;;;;;;;;;;;;;;;;5052040;28;19913;-75
2022/04/30 13:03:40;;;;;;;;;;;;;;;;;;5042762;28;19909;-75
2022/04/30 13:06:27;;;;;;;;;;;;;;;;;;5044361;28;19924;-75
2022/04/30 13:15:24;;;;;;;;;;;;;;;;;;5050556;28;19913;-75
2022/04/30 13:18:10;;;;;;;;;;;;;;;;;;5046628;28;19947;-75
2022/04/30 13:20:57;;;;;;;;;;;;;;;;;;5041963;28;19920;-75
2022/04/30 13:23:43;;;;;;;;;;;;;;;;;;5060430;28;19919;-75
2022/04/30 13:26:30;;;;;;;;;;;;;;;;;;5050340;28;20377;-75
2022/04/30 13:29:16;;;;;;;;;;;;;;;;;;5026402;28;19920;-75
2022/04/30 13:32:03;;;;;;;;;;;;;;;;;;5051245;28;19925;-75
2022/04/30 13:34:49;;;;;;;;;;;;;;;;;;5048376;28;19916;-76
2022/04/30 13:37:42;;;;;;;;;;;;;;;;;;5052892;28;20402;-74
2022/04/30 13:40:28;;;;;;;;;;;;;;;;;;5033815;28;19916;-75
2022/04/30 13:43:15;;;;;;;;;;;;;;;;;;5048219;28;19913;-75
2022/04/30 13:46:01;;;;;;;;;;;;;;;;;;5058150;28;20270;-75
2022/04/30 13:48:49;;;;;;;;;;;;;;;;;;5060133;28;19920;-74
2022/04/30 13:51:36;;;;;;;;;;;;;;;;;;5047653;28;19913;-75
2022/04/30 13:54:22;;;;;;;;;;;;;;;;;;5031852;28;19916;-75
2022/04/30 13:57:09;;;;;;;;;;;;;;;;;;5042222;28;19920;-74
2022/04/30 13:59:55;;;;;;;;;;;;;;;;;;5039453;28;20388;-75
2022/04/30 14:02:42;;;;;;;;;;;;;;;;;;5038634;28;19913;-74
2022/04/30 14:05:29;;;;;;;;;;;;;;;;;;5041093;28;20524;-75
2022/04/30 14:08:15;;;;;;;;;;;;;;;;;;5048814;28;19958;-75
2022/04/30 14:11:02;;;;;;;;;;;;;;;;;;5052362;28;19909;-75
2022/04/30 14:20:12;;;;;;;;;;;;;;;;;;5048262;28;19905;-75
2022/04/30 14:22:59;;;;;;;;;;;;;;;;;;5048815;28;19919;-75
2022/04/30 14:25:45;;;;;;;;;;;;;;;;;;5043119;28;19909;-75
2022/04/30 14:28:32;;;;;;;;;;;;;;;;;;5045415;28;19917;-75
2022/04/30 14:31:18;;;;;;;;;;;;;;;;;;5047208;28;19915;-75
2022/04/30 14:34:05;;;;;;;;;;;;;;;;;;5049979;28;20388;-76
2022/04/30 14:36:51;;;;;;;;;;;;;;;;;;5050966;28;19913;-75
2022/04/30 14:39:40;;;;;;;;;;;;;;;;;;5043647;28;19912;-75
2022/04/30 14:42:26;;;;;;;;;;;;;;;;;;5049777;28;19913;-75
2022/04/30 14:45:14;;;;;;;;;;;;;;;;;;5050022;28;19923;-75
2022/04/30 14:48:01;;;;;;;;;;;;;;;;;;5037433;28;19909;-75
2022/04/30 14:50:47;;;;;;;;;;;;;;;;;;5048936;28;19913;-75
2022/04/30 14:53:34;;;;;;;;;;;;;;;;;;5049479;28;19917;-75
2022/04/30 14:56:22;;;;;;;;;;;;;;;;;;5047140;28;19909;-75
2022/04/30 14:59:09;;;;;;;;;;;;;;;;;;5048671;28;19915;-75
2022/04/30 15:01:56;;;;;;;;;;;;;;;;;;5039979;28;20279;-75
2022/04/30 15:04:42;;;;;;;;;;;;;;;;;;5040267;28;19913;-75
2022/04/30 15:07:28;;;;;;;;;;;;;;;;;;5044505;28;19923;-75
2022/04/30 15:10:15;;;;;;;;;;;;;;;;;;5051879;28;19971;-74
2022/04/30 15:13:02;;;;;;;;;;;;;;;;;;5040356;28;19920;-74
2022/04/30 15:15:48;;;;;;;;;;;;;;;;;;5048122;28;19913;-74
2022/04/30 15:18:35;;;;;;;;;;;;;;;;;;5050623;28;19909;-74
2022/04/30 15:21:21;;;;;;;;;;;;;;;;;;5062128;28;20258;-75
2022/04/30 15:24:08;;;;;;;;;;;;;;;;;;5049742;28;19931;-75
2022/04/30 15:26:54;;;;;;;;;;;;;;;;;;5043615;28;19924;-74
2022/04/30 15:29:41;;;;;;;;;;;;;;;;;;5035343;28;20317;-74
2022/04/30 15:32:28;;;;;;;;;;;;;;;;;;5048859;28;19920;-74
2022/04/30 15:35:14;;;;;;;;;;;;;;;;;;5048983;28;19917;-74
2022/04/30 15:38:01;;;;;;;;;;;;;;;;;;5048614;28;19912;-74
2022/04/30 15:40:48;;;;;;;;;;;;;;;;;;5045804;28;20287;-74
2022/04/30 15:43:35;;;;;;;;;;;;;;;;;;5047392;28;20383;-74
2022/04/30 15:51:21;;;;;;;;;;;;;;;;;;5030540;28;20294;-74
2022/04/30 15:52:33;;;;;;;;;;;;;;;;;;5044146;28;19915;-74
2022/04/30 15:55:19;;;;;;;;;;;;;;;;;;5036795;28;19914;-74
2022/04/30 15:58:06;;;;;;;;;;;;;;;;;;5035137;28;20661;-74
2022/04/30 16:00:52;;;;;;;;;;;;;;;;;;5032281;28;19909;-75
2022/04/30 16:03:39;;;;;;;;;;;;;;;;;;5035774;28;19917;-75
2022/04/30 16:06:25;;;;;;;;;;;;;;;;;;5033737;28;20300;-75
2022/04/30 16:09:12;;;;;;;;;;;;;;;;;;5048586;28;19931;-75
2022/04/30 16:11:58;;;;;;;;;;;;;;;;;;5043420;28;19908;-75
2022/04/30 16:14:45;;;;;;;;;;;;;;;;;;5044706;28;19921;-75
2022/04/30 16:17:31;;;;;;;;;;;;;;;;;;5042997;28;19909;-75
2022/04/30 16:20:19;;;;;;;;;;;;;;;;;;5038181;28;20357;-75
2022/04/30 16:23:05;;;;;;;;;;;;;;;;;;5038702;28;19924;-75
2022/04/30 16:25:52;;;;;;;;;;;;;;;;;;5048983;28;19913;-75
2022/04/30 16:28:38;;;;;;;;;;;;;;;;;;5044391;28;19920;-75
2022/04/30 16:31:24;;;;;;;;;;;;;;;;;;5049004;28;19962;-76
2022/04/30 16:34:11;;;;;;;;;;;;;;;;;;5043179;28;20612;-75
2022/04/30 16:36:57;;;;;;;;;;;;;;;;;;5042365;28;20369;-75
2022/04/30 16:39:44;;;;;;;;;;;;;;;;;;5035082;28;19916;-75
2022/04/30 16:42:30;;;;;;;;;;;;;;;;;;5040560;28;20400;-75
2022/04/30 16:45:17;;;;;;;;;;;;;;;;;;5042713;28;19910;-75
2022/04/30 16:48:03;;;;;;;;;;;;;;;;;;5039676;28;19916;-75
2022/04/30 16:53:55;;;;;;;;;;;;;;;;;;5031534;28;19927;-75
2022/04/30 16:59:46;;;;;;;;;;;;;;;;;;5039142;28;19913;-75
2022/04/30 17:02:33;;;;;;;;;;;;;;;;;;5038513;28;20226;-75
2022/04/30 17:05:19;;;;;;;;;;;;;;;;;;5036215;28;19913;-75
2022/04/30 17:08:07;;;;;;;;;;;;;;;;;;5034320;28;19909;-75
2022/04/30 17:10:54;;;;;;;;;;;;;;;;;;5041006;28;19925;-76
2022/04/30 17:13:40;;;;;;;;;;;;;;;;;;5038517;28;19920;-75
2022/04/30 17:16:27;;;;;;;;;;;;;;;;;;5044637;28;19920;-75
2022/04/30 17:19:13;;;;;;;;;;;;;;;;;;5047534;28;19917;-75
2022/04/30 17:22:00;;;;;;;;;;;;;;;;;;5040321;28;19912;-75
2022/04/30 17:24:46;;;;;;;;;;;;;;;;;;5051983;28;19919;-75
2022/04/30 17:27:33;;;;;;;;;;;;;;;;;;5046673;28;19919;-76
2022/04/30 17:30:19;;;;;;;;;;;;;;;;;;5043149;28;19933;-76
2022/04/30 17:39:17;;;;;;;;;;;;;;;;;;5045164;28;19919;-76
2022/04/30 17:42:03;;;;;;;;;;;;;;;;;;5044823;28;19924;-77
2022/04/30 17:44:50;;;;;;;;;;;;;;;;;;5055214;28;20365;-76
2022/04/30 17:47:36;;;;;;;;;;;;;;;;;;5039067;28;19917;-76
2022/04/30 17:50:23;;;;;;;;;;;;;;;;;;5039743;28;19917;-76
2022/04/30 17:53:09;;;;;;;;;;;;;;;;;;5045730;28;20426;-76
2022/04/30 17:55:56;;;;;;;;;;;;;;;;;;5045057;28;19917;-76
2022/04/30 17:58:42;;;;;;;;;;;;;;;;;;5051144;28;19912;-77
2022/04/30 18:01:30;;;;;;;;;;;;;;;;;;5040707;28;20391;-77
2022/04/30 18:04:17;;;;;;;;;;;;;;;;;;5035740;28;19925;-76
2022/04/30 18:07:03;;;;;;;;;;;;;;;;;;5040417;28;20297;-76
2022/04/30 18:09:50;;;;;;;;;;;;;;;;;;5037041;28;19916;-75
2022/04/30 18:12:36;;;;;;;;;;;;;;;;;;5042595;28;19913;-75
2022/04/30 18:15:23;;;;;;;;;;;;;;;;;;5038204;28;19909;-76
2022/04/30 18:18:09;;;;;;;;;;;;;;;;;;5038756;28;19917;-77
2022/04/30 18:20:56;;;;;;;;;;;;;;;;;;5034257;28;19913;-75
2022/04/30 18:23:42;;;;;;;;;;;;;;;;;;5034969;28;20519;-74
2022/04/30 18:26:29;;;;;;;;;;;;;;;;;;5034471;28;19916;-75
2022/04/30 18:29:16;;;;;;;;;;;;;;;;;;5035112;28;20012;-76
2022/04/30 18:32:03;;;;;;;;;;;;;;;;;;5041616;28;19925;-75
2022/04/30 18:34:49;;;;;;;;;;;;;;;;;;5039794;28;19912;-74
2022/04/30 18:37:36;;;;;;;;;;;;;;;;;;5039578;28;19909;-75
2022/04/30 18:40:22;;;;;;;;;;;;;;;;;;5037888;28;19915;-74
2022/04/30 18:43:11;;;;;;;;;;;;;;;;;;5050228;28;19916;-75
2022/04/30 18:45:57;;;;;;;;;;;;;;;;;;5030409;28;19909;-74
2022/04/30 18:48:44;;;;;;;;;;;;;;;;;;5037036;28;20384;-76
2022/04/30 18:51:30;;;;;;;;;;;;;;;;;;5039193;28;19913;-75
2022/04/30 19:03:35;;;;;;;;;;;;;;;;;;5032559;28;19913;-75
2022/04/30 19:06:21;;;;;;;;;;;;;;;;;;5036006;28;19920;-75
2022/04/30 19:09:08;;;;;;;;;;;;;;;;;;5028288;28;19920;-75
2022/04/30 19:11:54;;;;;;;;;;;;;;;;;;5041964;28;19924;-75
2022/04/30 19:14:41;;;;;;;;;;;;;;;;;;5047246;28;20003;-75
2022/04/30 19:17:27;;;;;;;;;;;;;;;;;;5039207;28;19920;-75
2022/04/30 19:20:14;;;;;;;;;;;;;;;;;;5049711;28;19908;-76
2022/04/30 19:23:00;;;;;;;;;;;;;;;;;;5049619;28;19916;-75
2022/04/30 19:25:47;;;;;;;;;;;;;;;;;;5035553;28;19919;-75
2022/04/30 19:28:33;;;;;;;;;;;;;;;;;;5056603;28;19919;-75
2022/04/30 19:31:21;;;;;;;;;;;;;;;;;;5048489;28;20326;-75
2022/04/30 19:34:10;;;;;;;;;;;;;;;;;;5047942;28;19950;-74
2022/04/30 19:36:57;;;;;;;;;;;;;;;;;;5047366;28;19919;-75
2022/04/30 19:39:48;;;;;;;;;;;;;;;;;;5041316;28;19913;-74
2022/04/30 19:42:35;;;;;;;;;;;;;;;;;;5032163;28;19909;-75
2022/04/30 19:45:21;;;;;;;;;;;;;;;;;;5032865;28;19923;-76
2022/04/30 19:48:08;;;;;;;;;;;;;;;;;;5038680;28;19917;-73
2022/04/30 19:50:54;;;;;;;;;;;;;;;;;;5029973;28;19925;-75
2022/04/30 19:53:41;;;;;;;;;;;;;;;;;;5033635;28;19925;-76
2022/04/30 19:56:27;;;;;;;;;;;;;;;;;;5039241;28;19909;-74
2022/04/30 19:59:14;;;;;;;;;;;;;;;;;;5044608;28;19912;-75
2022/04/30 20:02:00;;;;;;;;;;;;;;;;;;5042728;28;19909;-74
2022/04/30 20:04:47;;;;;;;;;;;;;;;;;;5033479;28;19913;-74
2022/04/30 20:07:34;;;;;;;;;;;;;;;;;;5032866;28;19940;-74
2022/04/30 20:16:52;;;;;;;;;;;;;;;;;;5010202;28;20375;-75
2022/04/30 20:19:38;;;;;;;;;;;;;;;;;;5036310;28;19909;-74
2022/04/30 20:22:25;;;;;;;;;;;;;;;;;;5030563;28;19909;-75
2022/04/30 20:25:12;;;;;;;;;;;;;;;;;;5029182;28;19913;-76
2022/04/30 20:27:59;;;;;;;;;;;;;;;;;;5031403;28;20445;-76
2022/04/30 20:36:56;;;;;;;;;;;;;;;;;;5031893;28;19924;-75